Rochester Mills, Pennsylvania
Current Conditions -  °F | °C
As of 7:55 AM on Thursday 23 Oct 2014 (Local Time) from KIDI Reporting Station
Overcast Overcast  
Wind Chill:   Ceiling: 2200
Heat Index:   Visibility: 10mi
Dew Point:   Wind: 3mph
Humidity: 87%   Direction: 310°NW
Pressure: 30.11"   Gusts: NA
Location:  40.82°N, 78.99°W
Report Text: KIDI 231155Z AUTO 31003KT 10SM OVC022 07/05 A3011 RMK A01
Loading
Personal Weather Stations






























Interactive Weather Map
Tropical Storm Tracking
New forecast layout! Learn more

10-Day Weather Forecast

Advertisements
Track Severe Weather on mobile